createdAt,value
2019-03-31T00:00:20.970Z,4.80
2019-03-31T00:02:49.425Z,4.70
2019-03-31T00:05:17.827Z,4.80
2019-03-31T00:07:46.254Z,4.90
2019-03-31T00:10:14.709Z,5.00
2019-03-31T00:12:43.138Z,5.20
2019-03-31T00:15:11.583Z,5.20
2019-03-31T00:17:40.006Z,5.20
2019-03-31T00:20:08.441Z,5.30
2019-03-31T00:22:36.848Z,5.30
2019-03-31T00:25:06.165Z,5.40
2019-03-31T00:27:34.612Z,5.40
2019-03-31T00:30:03.145Z,5.50
2019-03-31T00:32:31.573Z,5.50
2019-03-31T00:35:00.012Z,5.40
2019-03-31T00:37:28.437Z,5.40
2019-03-31T00:39:56.909Z,5.40
2019-03-31T00:42:25.335Z,5.50
2019-03-31T00:44:53.796Z,5.50
2019-03-31T00:47:22.212Z,5.40
2019-03-31T00:49:50.697Z,5.40
2019-03-31T00:52:19.118Z,5.40
2019-03-31T00:54:47.546Z,5.30
2019-03-31T00:57:16.004Z,5.40
2019-03-31T00:59:44.418Z,5.50
2019-03-31T01:02:14.592Z,5.60
2019-03-31T01:04:43.265Z,5.50
2019-03-31T01:07:11.778Z,5.40
2019-03-31T01:09:40.470Z,5.30
2019-03-31T01:12:08.930Z,5.20
2019-03-31T01:14:38.377Z,5.10
2019-03-31T01:17:08.464Z,5.00
2019-03-31T01:19:37.233Z,5.00
2019-03-31T01:22:05.687Z,5.10
2019-03-31T01:24:34.111Z,5.20
2019-03-31T01:27:03.103Z,5.30
2019-03-31T01:29:31.541Z,5.30
2019-03-31T01:31:59.989Z,5.30
2019-03-31T01:34:28.418Z,5.30
2019-03-31T01:36:56.872Z,5.30
2019-03-31T01:39:26.956Z,5.40
2019-03-31T01:41:55.385Z,5.50
2019-03-31T01:44:23.814Z,5.50
2019-03-31T01:46:52.274Z,5.50
2019-03-31T01:49:20.745Z,5.40
2019-03-31T01:51:49.203Z,5.40
2019-03-31T01:54:17.620Z,5.20
2019-03-31T01:56:46.082Z,5.10
2019-03-31T01:59:14.579Z,5.30
2019-03-31T02:01:43.031Z,5.20
2019-03-31T02:04:11.449Z,5.40
2019-03-31T02:06:39.901Z,5.30
2019-03-31T02:09:08.343Z,5.10
2019-03-31T02:11:36.801Z,5.10
2019-03-31T02:14:05.222Z,5.20
2019-03-31T02:16:33.681Z,5.20
2019-03-31T02:19:02.114Z,5.10
2019-03-31T02:21:30.581Z,5.10
2019-03-31T02:23:59.077Z,4.90
2019-03-31T02:26:27.532Z,4.90
2019-03-31T02:28:55.986Z,4.70
2019-03-31T02:31:24.447Z,4.70
2019-03-31T02:33:52.991Z,4.80
2019-03-31T02:36:21.527Z,4.80
2019-03-31T02:38:49.938Z,4.80
2019-03-31T02:41:18.459Z,4.60
2019-03-31T02:43:46.906Z,4.70
2019-03-31T02:46:16.302Z,4.60
2019-03-31T02:48:44.799Z,4.70
2019-03-31T02:51:13.294Z,4.60
2019-03-31T02:53:41.920Z,4.60
2019-03-31T02:56:10.686Z,4.60
2019-03-31T02:58:39.128Z,4.60
2019-03-31T03:01:07.556Z,4.50
2019-03-31T03:03:36.066Z,4.40
2019-03-31T03:06:04.518Z,4.40
2019-03-31T03:08:32.951Z,4.40
2019-03-31T03:11:01.400Z,4.30
2019-03-31T03:13:30.086Z,4.20
2019-03-31T03:16:10.861Z,4.10
2019-03-31T03:18:39.765Z,4.00
2019-03-31T03:21:08.236Z,3.90
2019-03-31T03:23:36.663Z,3.80
2019-03-31T03:26:05.119Z,3.80
2019-03-31T03:28:33.552Z,3.70
2019-03-31T03:31:02.365Z,3.60
2019-03-31T03:33:30.912Z,3.60
2019-03-31T03:35:59.346Z,3.50
2019-03-31T03:38:27.782Z,3.60
2019-03-31T03:40:56.237Z,3.70
2019-03-31T03:43:24.677Z,3.80
2019-03-31T03:45:53.143Z,3.80
2019-03-31T03:48:21.565Z,3.90
2019-03-31T03:50:50.136Z,3.80
2019-03-31T03:53:18.714Z,3.80
2019-03-31T03:55:47.162Z,3.80
2019-03-31T03:58:15.589Z,3.60
2019-03-31T04:00:44.166Z,3.50
2019-03-31T04:03:29.021Z,3.50
2019-03-31T04:05:42.788Z,3.50
2019-03-31T04:08:11.274Z,3.40
2019-03-31T04:10:45.922Z,3.40
2019-03-31T04:13:14.338Z,3.40
2019-03-31T04:15:42.871Z,3.50
2019-03-31T04:18:11.293Z,3.50
2019-03-31T04:20:39.885Z,3.50
2019-03-31T04:23:08.381Z,3.50
2019-03-31T04:25:36.812Z,3.50
2019-03-31T04:28:05.234Z,3.40
2019-03-31T04:30:33.681Z,3.30
2019-03-31T04:33:02.192Z,3.30
2019-03-31T04:35:30.610Z,3.20
2019-03-31T04:37:59.060Z,3.10
2019-03-31T04:40:27.470Z,3.00
2019-03-31T04:42:55.912Z,2.90
2019-03-31T04:45:24.370Z,2.80
2019-03-31T04:47:52.832Z,2.80
2019-03-31T04:50:21.304Z,2.70
2019-03-31T04:52:49.737Z,2.70
2019-03-31T04:55:18.169Z,2.70
2019-03-31T04:57:46.629Z,2.60
2019-03-31T05:00:15.048Z,2.70
2019-03-31T05:02:43.484Z,2.80
2019-03-31T05:05:11.907Z,2.80
2019-03-31T05:07:40.367Z,2.90
2019-03-31T05:10:08.782Z,2.80
2019-03-31T05:12:37.247Z,2.90
2019-03-31T05:15:05.737Z,3.00
2019-03-31T05:17:35.773Z,3.10
2019-03-31T05:20:05.503Z,3.10
2019-03-31T05:22:33.946Z,3.20
2019-03-31T05:25:02.377Z,3.20
2019-03-31T05:27:30.816Z,3.30
2019-03-31T05:29:59.249Z,3.50
2019-03-31T05:32:27.689Z,3.60
2019-03-31T05:34:56.118Z,3.70
2019-03-31T05:37:24.554Z,3.90
2019-03-31T05:39:53.043Z,4.00
2019-03-31T05:42:21.488Z,4.10
2019-03-31T05:44:49.981Z,4.20
2019-03-31T05:47:18.373Z,4.30
2019-03-31T05:49:46.793Z,4.30
2019-03-31T05:52:15.247Z,4.30
2019-03-31T05:54:43.660Z,4.30
2019-03-31T05:57:12.108Z,4.50
2019-03-31T05:59:40.529Z,4.60
2019-03-31T06:02:08.983Z,4.60
2019-03-31T06:04:37.406Z,4.70
2019-03-31T06:07:05.849Z,4.90
2019-03-31T06:09:34.317Z,5.00
2019-03-31T06:12:02.729Z,5.10
2019-03-31T06:14:31.161Z,5.00
2019-03-31T06:16:59.597Z,5.00
2019-03-31T06:19:28.029Z,5.00
2019-03-31T06:21:56.472Z,4.90
2019-03-31T06:24:24.890Z,4.90
2019-03-31T06:26:53.328Z,4.80
2019-03-31T06:29:21.751Z,4.80
2019-03-31T06:31:50.209Z,4.80
2019-03-31T06:34:18.625Z,4.90
2019-03-31T06:36:47.081Z,5.00
2019-03-31T06:39:15.510Z,5.10
2019-03-31T06:41:43.960Z,5.20
2019-03-31T06:44:12.366Z,5.30
2019-03-31T06:46:40.878Z,5.40
2019-03-31T06:49:09.295Z,5.70
2019-03-31T06:51:37.737Z,5.80
2019-03-31T06:54:06.157Z,6.30
2019-03-31T06:56:34.574Z,6.70
2019-03-31T06:59:03.022Z,6.80
2019-03-31T07:01:31.446Z,6.80
2019-03-31T07:03:59.899Z,6.50
2019-03-31T07:06:28.340Z,6.70
2019-03-31T07:08:56.793Z,7.70
2019-03-31T07:11:25.221Z,8.90
2019-03-31T07:13:53.660Z,9.50
2019-03-31T07:16:22.097Z,10.00
2019-03-31T07:18:50.558Z,9.50
2019-03-31T07:21:18.975Z,9.20
2019-03-31T07:23:47.433Z,9.50
2019-03-31T07:26:15.886Z,10.00
2019-03-31T07:28:44.325Z,9.70
2019-03-31T07:31:12.749Z,9.30
2019-03-31T07:33:41.204Z,8.80
2019-03-31T07:36:09.618Z,8.90
2019-03-31T07:38:39.354Z,9.10
2019-03-31T07:41:13.115Z,9.20
2019-03-31T07:43:38.194Z,9.10
2019-03-31T07:46:06.611Z,8.90
2019-03-31T07:48:35.067Z,8.90
2019-03-31T07:51:03.496Z,8.90
2019-03-31T07:53:31.952Z,9.20
2019-03-31T07:56:00.404Z,9.20
2019-03-31T07:58:28.885Z,9.30
2019-03-31T08:00:57.279Z,9.30
2019-03-31T08:03:25.717Z,9.30
2019-03-31T08:05:54.169Z,9.30
2019-03-31T08:08:22.625Z,9.30
2019-03-31T08:10:51.061Z,9.40
2019-03-31T08:13:19.490Z,9.50
2019-03-31T08:15:47.942Z,10.50
2019-03-31T08:18:16.393Z,11.10
2019-03-31T08:20:44.820Z,11.40
2019-03-31T08:23:13.365Z,11.60
2019-03-31T08:25:41.788Z,11.70
2019-03-31T08:28:10.241Z,11.70
2019-03-31T08:30:38.869Z,11.80
2019-03-31T08:33:07.368Z,11.90
2019-03-31T08:35:46.619Z,11.80
2019-03-31T08:38:05.979Z,11.80
2019-03-31T08:40:34.415Z,11.80
2019-03-31T08:43:03.860Z,11.70
2019-03-31T08:45:32.310Z,12.20
2019-03-31T08:48:00.774Z,12.80
2019-03-31T08:50:29.244Z,13.30
2019-03-31T08:52:57.697Z,13.60
2019-03-31T08:55:26.109Z,13.90
2019-03-31T08:57:54.566Z,14.10
2019-03-31T09:00:24.636Z,14.20
2019-03-31T09:02:53.115Z,14.50
2019-03-31T09:05:21.606Z,14.70
2019-03-31T09:07:50.081Z,15.10
2019-03-31T09:10:18.529Z,16.10
2019-03-31T09:12:48.689Z,16.10
2019-03-31T10:51:53.729Z,24.80
2019-03-31T10:54:22.289Z,23.90
2019-03-31T13:32:43.991Z,23.80
2019-03-31T13:35:12.477Z,24.90
2019-03-31T13:37:40.913Z,25.50
2019-03-31T13:40:09.373Z,26.90
2019-03-31T13:42:37.848Z,28.00
2019-03-31T13:45:06.881Z,28.30
2019-03-31T13:47:35.324Z,28.90
2019-03-31T13:50:06.495Z,30.20
2019-03-31T13:52:34.933Z,26.00
2019-03-31T13:55:05.921Z,23.90
2019-03-31T13:57:35.036Z,22.70
2019-03-31T14:00:05.451Z,22.20
2019-03-31T14:02:33.877Z,23.50
2019-03-31T14:05:02.337Z,25.70
2019-03-31T14:07:30.765Z,27.20
2019-03-31T14:09:59.200Z,28.40
2019-03-31T14:12:28.281Z,29.50
2019-03-31T14:14:56.757Z,29.50
2019-03-31T14:17:25.213Z,29.30
2019-03-31T14:19:53.630Z,29.20
2019-03-31T14:22:22.077Z,28.50
2019-03-31T14:24:50.506Z,25.60
2019-03-31T14:27:18.971Z,23.80
2019-03-31T14:29:47.390Z,23.10
2019-03-31T15:51:36.054Z,15.90
2019-03-31T15:54:05.150Z,15.50
2019-03-31T15:56:34.183Z,15.00
2019-03-31T15:59:03.162Z,14.70
2019-03-31T16:01:34.063Z,14.30
2019-03-31T16:04:03.129Z,13.90
2019-03-31T16:06:32.275Z,13.70
2019-03-31T16:09:00.746Z,13.80
2019-03-31T16:11:29.237Z,13.70
2019-03-31T16:13:57.669Z,12.90
2019-03-31T16:16:26.121Z,12.30
2019-03-31T16:18:54.618Z,12.10
2019-03-31T16:21:23.077Z,12.10
2019-03-31T16:23:51.510Z,12.30
2019-03-31T16:26:19.965Z,12.30
2019-03-31T16:28:48.392Z,12.20
2019-03-31T16:31:16.878Z,11.80
2019-03-31T16:33:45.424Z,12.00
2019-03-31T16:36:13.882Z,12.00
2019-03-31T16:38:42.418Z,12.10
2019-03-31T16:41:10.936Z,11.80
2019-03-31T16:43:39.357Z,11.60
2019-03-31T16:46:07.786Z,11.50
2019-03-31T16:48:36.242Z,11.40
2019-03-31T16:51:04.659Z,11.30
2019-03-31T16:53:33.102Z,11.20
2019-03-31T16:56:01.538Z,10.90
2019-03-31T16:58:29.997Z,10.50
2019-03-31T17:00:58.414Z,10.70
2019-03-31T17:03:26.932Z,10.70
2019-03-31T17:05:55.497Z,10.20
2019-03-31T17:08:24.260Z,10.20
2019-03-31T17:10:52.701Z,10.20
2019-03-31T17:13:21.160Z,10.10
2019-03-31T17:15:49.717Z,9.90
2019-03-31T17:18:18.129Z,10.10
2019-03-31T17:20:46.620Z,9.90
2019-03-31T17:23:15.058Z,9.80
2019-03-31T17:25:43.505Z,9.90
2019-03-31T17:28:11.962Z,9.80
2019-03-31T17:30:40.427Z,9.90
2019-03-31T17:33:08.902Z,9.90
2019-03-31T17:35:37.325Z,9.80
2019-03-31T17:38:05.846Z,9.60
2019-03-31T17:40:34.323Z,9.30
2019-03-31T17:43:02.774Z,9.40
2019-03-31T17:45:31.726Z,9.10
2019-03-31T17:48:00.984Z,9.10
2019-03-31T17:50:29.937Z,9.00
2019-03-31T17:52:59.040Z,9.00
2019-03-31T17:55:27.858Z,9.00
2019-03-31T17:57:58.281Z,9.10
2019-03-31T18:00:27.460Z,9.10
2019-03-31T18:02:56.573Z,9.10
2019-03-31T18:05:25.619Z,9.10
2019-03-31T18:07:54.886Z,9.00
2019-03-31T18:10:23.756Z,9.00
2019-03-31T18:12:52.716Z,9.10
2019-03-31T18:15:22.717Z,9.00
2019-03-31T18:17:53.478Z,8.90
2019-03-31T18:20:22.611Z,9.00
2019-03-31T18:22:53.515Z,8.90
2019-03-31T18:25:22.145Z,8.70
2019-03-31T18:27:51.846Z,8.60
2019-03-31T18:30:22.175Z,8.60
2019-03-31T18:32:51.233Z,8.60
2019-03-31T18:35:21.100Z,8.70
2019-03-31T18:37:50.110Z,8.80
2019-03-31T18:40:18.923Z,8.70
2019-03-31T18:42:47.706Z,8.80
2019-03-31T18:45:17.130Z,8.80
2019-03-31T18:47:47.037Z,8.70
2019-03-31T18:50:16.085Z,8.60
2019-03-31T18:52:45.101Z,8.60
2019-03-31T18:55:17.190Z,8.70
2019-03-31T18:57:52.770Z,8.70
2019-03-31T19:00:35.331Z,8.70
2019-03-31T19:03:14.434Z,8.60
2019-03-31T19:06:01.417Z,8.50
2019-03-31T19:08:43.691Z,8.30
2019-03-31T19:11:20.064Z,8.40
2019-03-31T19:14:08.721Z,8.50
2019-03-31T19:16:59.274Z,8.50
2019-03-31T19:19:45.767Z,8.30
2019-03-31T19:22:16.680Z,8.30
2019-03-31T19:24:47.193Z,8.20
2019-03-31T19:27:30.059Z,8.20
2019-03-31T19:30:16.908Z,8.20
2019-03-31T19:32:47.387Z,8.10
2019-03-31T19:35:35.101Z,8.00
2019-03-31T19:38:07.245Z,8.00
2019-03-31T19:40:44.535Z,8.00
2019-03-31T19:43:22.592Z,7.90
2019-03-31T19:46:09.812Z,7.90
2019-03-31T19:48:46.491Z,7.90
2019-03-31T19:51:22.792Z,7.90
2019-03-31T19:54:09.295Z,8.00
2019-03-31T19:56:47.644Z,7.80
2019-03-31T19:59:35.162Z,7.80
2019-03-31T20:02:25.167Z,7.70
2019-03-31T20:04:54.872Z,7.70
2019-03-31T20:07:41.778Z,7.60
2019-03-31T20:10:27.499Z,7.70
2019-03-31T20:12:58.169Z,7.60
2019-03-31T20:15:28.892Z,7.60
2019-03-31T20:18:08.939Z,7.50
2019-03-31T20:20:42.706Z,7.50
2019-03-31T20:23:13.174Z,7.80
2019-03-31T20:25:52.604Z,7.80
2019-03-31T20:28:23.689Z,7.60
2019-03-31T20:31:05.936Z,7.50
2019-03-31T20:33:49.075Z,7.40
2019-03-31T20:36:35.940Z,7.50
2019-03-31T20:39:15.419Z,7.50
2019-03-31T20:41:49.110Z,7.40
2019-03-31T20:44:18.182Z,7.30
2019-03-31T20:46:47.232Z,7.30
2019-03-31T20:49:17.828Z,7.30
2019-03-31T20:51:46.591Z,7.40
2019-03-31T20:54:15.379Z,7.30
2019-03-31T20:56:45.812Z,7.30
2019-03-31T20:59:16.384Z,7.30
2019-03-31T21:01:45.482Z,7.30
2019-03-31T21:04:14.531Z,7.10
2019-03-31T21:06:44.407Z,7.10
2019-03-31T21:09:13.592Z,7.00
2019-03-31T21:11:43.379Z,7.00
2019-03-31T21:14:14.804Z,7.20
2019-03-31T21:16:43.752Z,7.20
2019-03-31T21:19:12.887Z,7.10
2019-03-31T21:21:44.736Z,7.10
2019-03-31T21:24:15.022Z,7.10
2019-03-31T21:26:44.020Z,7.00
2019-03-31T21:29:13.436Z,6.90
2019-03-31T21:31:42.374Z,6.80
2019-03-31T21:34:11.465Z,6.80
2019-03-31T21:36:41.927Z,6.60
2019-03-31T21:39:10.871Z,6.60
2019-03-31T21:41:39.905Z,6.50
2019-03-31T21:44:08.999Z,6.60
2019-03-31T21:46:38.494Z,6.60
2019-03-31T21:49:10.359Z,6.40
2019-03-31T21:51:40.931Z,6.50
2019-03-31T21:54:10.226Z,6.40
2019-03-31T21:56:39.549Z,6.50
2019-03-31T21:59:08.537Z,6.50
2019-03-31T22:01:37.236Z,6.60
2019-03-31T22:04:06.315Z,6.60
2019-03-31T22:06:35.336Z,6.40
2019-03-31T22:09:06.728Z,6.40
2019-03-31T22:11:35.704Z,6.30
2019-03-31T22:14:06.034Z,6.30
2019-03-31T22:16:35.056Z,6.20
2019-03-31T22:19:04.190Z,6.20
2019-03-31T22:21:34.299Z,6.30
2019-03-31T22:24:03.327Z,6.30
2019-03-31T22:26:32.865Z,6.10
2019-03-31T22:29:02.895Z,6.20
2019-03-31T22:31:31.827Z,6.30
2019-03-31T22:34:01.403Z,6.30
2019-03-31T22:36:30.362Z,6.40
2019-03-31T22:38:59.328Z,6.40
2019-03-31T22:41:28.684Z,6.40
2019-03-31T22:43:57.592Z,6.20
2019-03-31T22:46:26.951Z,6.20
2019-03-31T22:48:56.047Z,6.20
2019-03-31T22:51:25.110Z,6.30
2019-03-31T22:53:53.929Z,6.20
2019-03-31T22:56:23.040Z,6.10
2019-03-31T22:58:52.898Z,6.20
2019-03-31T23:01:23.202Z,6.20
2019-03-31T23:03:52.083Z,6.10
2019-03-31T23:06:21.011Z,6.00
2019-03-31T23:08:49.789Z,6.00
2019-03-31T23:11:18.709Z,6.00
2019-03-31T23:13:47.722Z,5.90
2019-03-31T23:16:16.796Z,5.80
2019-03-31T23:18:48.151Z,5.90
2019-03-31T23:21:18.014Z,6.10
2019-03-31T23:23:46.802Z,6.10
2019-03-31T23:26:16.847Z,6.00
2019-03-31T23:28:49.780Z,6.00
2019-03-31T23:31:18.839Z,6.00
2019-03-31T23:33:48.558Z,6.00
2019-03-31T23:36:17.520Z,5.80
2019-03-31T23:38:46.517Z,5.80
2019-03-31T23:41:15.562Z,5.80
2019-03-31T23:43:44.751Z,5.60
2019-03-31T23:46:13.847Z,5.60
2019-03-31T23:48:42.815Z,5.50
2019-03-31T23:51:12.959Z,5.50
2019-03-31T23:53:44.103Z,5.60
2019-03-31T23:56:14.224Z,5.60
2019-03-31T23:58:45.161Z,5.50
